Time;durP1;ratioP1;P1;durP2;ratioP2;P2;SDS_P1;SDS_P2;PMS_P1;PMS_P2;Temp;Humidity;BMP_temperature;BMP_pressure;BME280_temperature;BME280_humidity;BME280_pressure;Samples;Min_cycle;Max_cycle;Signal;HPM_P1;HPM_P2
2023/05/24 00:00:31;;;;;;;13.07;3.10;;;;;;;;;;4988729;28;20110;-71
2023/05/24 00:02:56;;;;;;;19.42;3.58;;;;;;;;;;4985629;28;20647;-71
2023/05/24 00:05:22;;;;;;;14.23;3.00;;;;;;;;;;4985668;28;20025;-71
2023/05/24 00:07:47;;;;;;;18.08;3.55;;;;;;;;;;4987435;28;20270;-71
2023/05/24 00:10:13;;;;;;;9.80;3.13;;;;;;;;;;4984951;28;20066;-71
2023/05/24 00:12:38;;;;;;;14.82;3.95;;;;;;;;;;4987593;28;20362;-71
2023/05/24 00:15:03;;;;;;;15.32;3.53;;;;;;;;;;4984122;28;20069;-71
2023/05/24 00:17:29;;;;;;;13.77;3.35;;;;;;;;;;4987782;28;20109;-71
2023/05/24 00:19:54;;;;;;;16.83;3.63;;;;;;;;;;4986092;28;20025;-71
2023/05/24 00:22:20;;;;;;;9.25;3.65;;;;;;;;;;4984073;28;20053;-71
2023/05/24 00:24:48;;;;;;;14.88;3.83;;;;;;;;;;4989190;28;20497;-71
2023/05/24 00:27:14;;;;;;;15.13;2.83;;;;;;;;;;4985824;28;20026;-71
2023/05/24 00:29:39;;;;;;;14.32;4.18;;;;;;;;;;4985333;28;20019;-71
2023/05/24 00:32:04;;;;;;;20.63;3.63;;;;;;;;;;4986959;28;20462;-71
2023/05/24 00:34:30;;;;;;;17.90;3.10;;;;;;;;;;4983901;28;20014;-71
2023/05/24 00:36:56;;;;;;;14.47;3.10;;;;;;;;;;4988438;28;20037;-71
2023/05/24 00:39:21;;;;;;;10.95;2.60;;;;;;;;;;4985822;28;20333;-71
2023/05/24 00:41:46;;;;;;;15.80;3.10;;;;;;;;;;4981692;28;20062;-71
2023/05/24 00:44:12;;;;;;;13.97;3.13;;;;;;;;;;4985856;28;20263;-71
2023/05/24 00:46:37;;;;;;;12.77;2.90;;;;;;;;;;4987705;28;20323;-71
2023/05/24 00:49:03;;;;;;;14.77;3.75;;;;;;;;;;4984323;28;21570;-70
2023/05/24 00:51:30;;;;;;;10.75;2.75;;;;;;;;;;4985506;28;20351;-70
2023/05/24 00:53:55;;;;;;;14.57;2.97;;;;;;;;;;4984590;28;20089;-71
2023/05/24 00:56:21;;;;;;;17.80;3.00;;;;;;;;;;4986560;28;20414;-71
2023/05/24 00:58:49;;;;;;;17.83;2.65;;;;;;;;;;4982526;28;20076;-71
2023/05/24 01:01:14;;;;;;;18.48;2.55;;;;;;;;;;4986869;28;20366;-71
2023/05/24 01:03:40;;;;;;;8.23;2.33;;;;;;;;;;4985561;28;20038;-71
2023/05/24 01:06:06;;;;;;;17.27;3.00;;;;;;;;;;4983046;28;20272;-71
2023/05/24 01:08:37;;;;;;;20.55;2.67;;;;;;;;;;4985025;28;20010;-71
2023/05/24 01:11:13;;;;;;;18.38;3.17;;;;;;;;;;4983472;28;20788;-71
2023/05/24 01:13:52;;;;;;;34.03;3.03;;;;;;;;;;4984991;28;20034;-71
2023/05/24 01:16:24;;;;;;;7.93;2.30;;;;;;;;;;4987676;28;20026;-71
2023/05/24 01:18:52;;;;;;;9.85;3.30;;;;;;;;;;4984310;28;20265;-71
2023/05/24 01:21:47;;;;;;;10.10;2.50;;;;;;;;;;4983662;28;20102;-71
2023/05/24 01:24:41;;;;;;;10.25;2.53;;;;;;;;;;4981995;28;20045;-71
2023/05/24 01:27:07;;;;;;;11.82;2.90;;;;;;;;;;4981667;28;20052;-71
2023/05/24 01:29:32;;;;;;;20.23;2.83;;;;;;;;;;4983681;28;20581;-71
2023/05/24 01:31:58;;;;;;;12.65;2.85;;;;;;;;;;4984576;28;20113;-71
2023/05/24 01:34:26;;;;;;;10.10;2.50;;;;;;;;;;4985441;28;20045;-71
2023/05/24 01:36:51;;;;;;;12.50;2.58;;;;;;;;;;4984530;28;20033;-71
2023/05/24 01:39:17;;;;;;;14.02;2.80;;;;;;;;;;4981709;28;20023;-71
2023/05/24 01:41:46;;;;;;;22.38;3.30;;;;;;;;;;4986141;28;20049;-71
2023/05/24 01:44:22;;;;;;;10.13;2.97;;;;;;;;;;4980361;28;20043;-71
2023/05/24 01:46:50;;;;;;;22.05;3.55;;;;;;;;;;4982797;28;20018;-71
2023/05/24 01:49:19;;;;;;;17.50;3.10;;;;;;;;;;4983934;28;20698;-71
2023/05/24 01:52:01;;;;;;;16.42;3.05;;;;;;;;;;4988115;28;20030;-71
2023/05/24 01:54:29;;;;;;;16.02;2.53;;;;;;;;;;4986443;28;20026;-71
2023/05/24 01:56:56;;;;;;;16.23;2.22;;;;;;;;;;4982678;28;20073;-71
2023/05/24 01:59:22;;;;;;;11.05;2.45;;;;;;;;;;4982637;28;20038;-71
2023/05/24 02:01:48;;;;;;;11.90;3.28;;;;;;;;;;4979573;28;20026;-71
2023/05/24 02:04:13;;;;;;;18.23;3.67;;;;;;;;;;4980710;28;20454;-71
2023/05/24 02:06:38;;;;;;;15.02;3.38;;;;;;;;;;4981640;28;20026;-70
2023/05/24 02:09:03;;;;;;;11.15;2.63;;;;;;;;;;4981848;28;20088;-70
2023/05/24 02:11:28;;;;;;;16.20;3.33;;;;;;;;;;4986703;28;20018;-70
2023/05/24 02:13:54;;;;;;;17.90;3.00;;;;;;;;;;4986208;28;20018;-71
2023/05/24 02:16:19;;;;;;;17.27;3.47;;;;;;;;;;4980528;28;20357;-71
2023/05/24 02:18:45;;;;;;;10.82;2.67;;;;;;;;;;4982308;28;20018;-71
2023/05/24 02:21:11;;;;;;;13.10;3.40;;;;;;;;;;4981988;28;20057;-71
2023/05/24 02:23:36;;;;;;;12.20;3.22;;;;;;;;;;4987372;28;20626;-71
2023/05/24 02:26:02;;;;;;;17.70;3.90;;;;;;;;;;4981618;28;20049;-71
2023/05/24 02:28:30;;;;;;;11.05;2.60;;;;;;;;;;4981123;28;20068;-71
2023/05/24 02:30:56;;;;;;;8.98;2.40;;;;;;;;;;4985745;28;20019;-71
2023/05/24 02:33:24;;;;;;;15.87;3.27;;;;;;;;;;4983933;28;20018;-71
2023/05/24 02:35:49;;;;;;;14.93;2.78;;;;;;;;;;4981305;28;20272;-71
2023/05/24 02:38:14;;;;;;;15.27;2.97;;;;;;;;;;4984594;28;20014;-71
2023/05/24 02:40:40;;;;;;;14.10;2.90;;;;;;;;;;4977561;28;20030;-71
2023/05/24 02:43:05;;;;;;;11.55;2.97;;;;;;;;;;4985458;28;20027;-71
2023/05/24 02:45:30;;;;;;;14.45;2.70;;;;;;;;;;4990120;28;20019;-71
2023/05/24 02:47:55;;;;;;;14.63;3.53;;;;;;;;;;4989559;28;20030;-71
2023/05/24 02:50:20;;;;;;;13.40;2.85;;;;;;;;;;4985185;28;20791;-71
2023/05/24 02:52:45;;;;;;;12.48;2.90;;;;;;;;;;4983952;28;20113;-71
2023/05/24 02:55:11;;;;;;;5.23;2.40;;;;;;;;;;4985607;28;20084;-71
2023/05/24 02:57:36;;;;;;;14.40;3.03;;;;;;;;;;4987320;28;20644;-71
2023/05/24 03:00:02;;;;;;;11.60;4.32;;;;;;;;;;4986804;28;20538;-71
2023/05/24 03:02:28;;;;;;;15.13;3.10;;;;;;;;;;4983338;28;20026;-71
2023/05/24 03:04:53;;;;;;;17.92;3.15;;;;;;;;;;4984219;28;20096;-71
2023/05/24 03:07:18;;;;;;;15.07;2.67;;;;;;;;;;4981043;28;20026;-71
2023/05/24 03:09:43;;;;;;;;;;;;;;;;;;4984591;28;20030;-71
2023/05/24 03:12:08;;;;;;;;;;;;;;;;;;4988157;28;20010;-71
2023/05/24 03:14:33;;;;;;;20.17;2.80;;;;;;;;;;4987743;28;20041;-71
2023/05/24 03:16:59;;;;;;;6.73;2.63;;;;;;;;;;4982441;28;20030;-71
2023/05/24 03:19:24;;;;;;;15.35;3.35;;;;;;;;;;4987024;28;20288;-71
2023/05/24 03:21:49;;;;;;;15.77;3.22;;;;;;;;;;4984928;28;20031;-71
2023/05/24 03:24:14;;;;;;;11.25;2.78;;;;;;;;;;4989868;28;20469;-71
2023/05/24 03:26:40;;;;;;;10.33;2.60;;;;;;;;;;4987788;28;20489;-71
2023/05/24 03:29:05;;;;;;;10.77;2.45;;;;;;;;;;4987402;28;20266;-71
2023/05/24 03:31:31;;;;;;;17.55;2.67;;;;;;;;;;4985977;28;20022;-71
2023/05/24 03:33:56;;;;;;;11.53;3.07;;;;;;;;;;4980946;28;20022;-71
2023/05/24 03:36:21;;;;;;;18.40;3.50;;;;;;;;;;4985555;28;20643;-71
2023/05/24 03:38:46;;;;;;;10.43;3.22;;;;;;;;;;4986890;28;20340;-71
2023/05/24 03:41:11;;;;;;;24.00;3.57;;;;;;;;;;4987121;28;20030;-71
2023/05/24 03:43:37;;;;;;;10.13;3.08;;;;;;;;;;4984714;28;20282;-71
2023/05/24 03:46:02;;;;;;;13.03;2.90;;;;;;;;;;4982600;28;20405;-71
2023/05/24 03:48:27;;;;;;;11.40;2.92;;;;;;;;;;4985624;28;20319;-71
2023/05/24 03:50:52;;;;;;;14.52;2.95;;;;;;;;;;4985412;28;20034;-71
2023/05/24 03:53:17;;;;;;;;;;;;;;;;;;4989810;28;20086;-71
2023/05/24 03:55:43;;;;;;;5.75;2.20;;;;;;;;;;4986774;28;19922;-71
2023/05/24 03:58:08;;;;;;;17.52;3.30;;;;;;;;;;4983294;28;20038;-71
2023/05/24 04:00:33;;;;;;;10.57;3.17;;;;;;;;;;4985741;28;20080;-71
2023/05/24 04:02:59;;;;;;;14.53;2.60;;;;;;;;;;4982811;28;20383;-71
2023/05/24 04:05:28;;;;;;;7.30;2.67;;;;;;;;;;4981889;28;20266;-71
2023/05/24 04:07:53;;;;;;;10.82;2.90;;;;;;;;;;4983017;28;20010;-71
2023/05/24 04:10:18;;;;;;;13.15;3.03;;;;;;;;;;4980765;28;20501;-71
2023/05/24 04:12:44;;;;;;;14.63;2.73;;;;;;;;;;4982728;28;20030;-71
2023/05/24 04:15:13;;;;;;;11.85;3.67;;;;;;;;;;4985834;28;20298;-71
2023/05/24 04:17:38;;;;;;;12.75;2.35;;;;;;;;;;4984162;28;20096;-71
2023/05/24 04:20:04;;;;;;;9.90;2.50;;;;;;;;;;4980601;28;20584;-71
2023/05/24 04:22:30;;;;;;;14.60;2.90;;;;;;;;;;4981142;28;20274;-71
2023/05/24 04:24:55;;;;;;;15.65;3.65;;;;;;;;;;4987073;28;20030;-71
2023/05/24 04:27:20;;;;;;;12.63;2.10;;;;;;;;;;4979933;28;20645;-71
2023/05/24 04:29:48;;;;;;;10.55;2.95;;;;;;;;;;4982433;28;20265;-71
2023/05/24 04:32:13;;;;;;;11.20;2.50;;;;;;;;;;4982649;28;20030;-71
2023/05/24 04:34:41;;;;;;;13.77;3.10;;;;;;;;;;4985831;28;20022;-71
2023/05/24 04:37:06;;;;;;;7.03;2.67;;;;;;;;;;4986511;28;20069;-71
2023/05/24 04:39:31;;;;;;;10.87;2.30;;;;;;;;;;4988764;28;20105;-71
2023/05/24 04:41:57;;;;;;;12.60;3.03;;;;;;;;;;4981557;28;20286;-71
2023/05/24 04:44:23;;;;;;;11.23;3.90;;;;;;;;;;4978713;28;20262;-71
2023/05/24 04:46:48;;;;;;;13.35;3.28;;;;;;;;;;4986752;28;20442;-71
2023/05/24 04:49:13;;;;;;;10.85;2.42;;;;;;;;;;4981676;28;20014;-71
2023/05/24 04:51:38;;;;;;;14.93;3.67;;;;;;;;;;4982010;28;20028;-71
2023/05/24 04:54:07;;;;;;;15.20;3.85;;;;;;;;;;4983701;28;20010;-71
2023/05/24 04:56:33;;;;;;;12.07;3.58;;;;;;;;;;4979727;28;20046;-72
2023/05/24 04:58:58;;;;;;;12.70;3.55;;;;;;;;;;4984703;28;20042;-72
2023/05/24 05:01:23;;;;;;;8.70;3.00;;;;;;;;;;4986978;28;20019;-71
2023/05/24 05:03:48;;;;;;;16.93;3.27;;;;;;;;;;4981437;28;20062;-71
2023/05/24 05:06:14;;;;;;;16.97;5.97;;;;;;;;;;4984675;28;20261;-71
2023/05/24 05:08:39;;;;;;;15.77;3.40;;;;;;;;;;4979118;28;20266;-71
2023/05/24 05:11:04;;;;;;;26.42;4.63;;;;;;;;;;4988131;28;20445;-71
2023/05/24 05:13:29;;;;;;;10.37;3.77;;;;;;;;;;4983467;28;20449;-71
2023/05/24 05:15:54;;;;;;;26.38;4.40;;;;;;;;;;4983362;28;20278;-71
2023/05/24 05:18:20;;;;;;;15.53;3.70;;;;;;;;;;4980735;28;20110;-71
2023/05/24 05:20:45;;;;;;;20.97;3.60;;;;;;;;;;4983569;28;20278;-71
2023/05/24 05:23:10;;;;;;;12.15;3.80;;;;;;;;;;4983639;28;20795;-71
2023/05/24 05:25:35;;;;;;;21.37;4.10;;;;;;;;;;4981160;28;20389;-71
2023/05/24 05:28:01;;;;;;;19.13;4.47;;;;;;;;;;4982791;28;20400;-71
2023/05/24 05:30:26;;;;;;;18.90;4.10;;;;;;;;;;4985697;28;20753;-72
2023/05/24 05:32:51;;;;;;;16.60;4.53;;;;;;;;;;4982591;28;20037;-71
2023/05/24 05:35:16;;;;;;;24.25;5.13;;;;;;;;;;4978594;28;20274;-72
2023/05/24 05:37:41;;;;;;;31.73;6.13;;;;;;;;;;4980344;28;20112;-71
2023/05/24 05:40:07;;;;;;;19.10;4.55;;;;;;;;;;4976439;28;20789;-71
2023/05/24 05:42:32;;;;;;;21.98;4.72;;;;;;;;;;4981789;28;20026;-71
2023/05/24 05:44:57;;;;;;;26.83;4.80;;;;;;;;;;4978500;28;21730;-71
2023/05/24 05:47:22;;;;;;;23.33;6.13;;;;;;;;;;4982526;28;20162;-71
2023/05/24 05:49:47;;;;;;;23.20;4.43;;;;;;;;;;4978370;28;20577;-71
2023/05/24 05:52:13;;;;;;;23.50;6.15;;;;;;;;;;4976875;28;20282;-71
2023/05/24 05:54:38;;;;;;;26.58;4.95;;;;;;;;;;4979577;28;20027;-71
2023/05/24 05:57:03;;;;;;;25.15;4.75;;;;;;;;;;4979333;28;20034;-71
2023/05/24 05:59:28;;;;;;;25.08;5.30;;;;;;;;;;4983795;28;20496;-71
2023/05/24 06:01:54;;;;;;;27.07;4.77;;;;;;;;;;4983817;28;20048;-71
2023/05/24 06:04:19;;;;;;;22.42;4.70;;;;;;;;;;4980915;28;20262;-71
2023/05/24 06:06:48;;;;;;;20.38;4.43;;;;;;;;;;4984904;28;20365;-70
2023/05/24 06:09:13;;;;;;;28.08;5.82;;;;;;;;;;4983809;28;20033;-70
2023/05/24 06:11:41;;;;;;;24.75;5.05;;;;;;;;;;4983894;28;20030;-70
2023/05/24 06:14:07;;;;;;;27.05;4.88;;;;;;;;;;4984782;28;20453;-70
2023/05/24 06:16:32;;;;;;;26.07;5.63;;;;;;;;;;4986169;28;20106;-70
2023/05/24 06:18:57;;;;;;;24.10;4.40;;;;;;;;;;4979905;28;20261;-70
2023/05/24 06:21:22;;;;;;;33.30;6.90;;;;;;;;;;4978376;28;20720;-71
2023/05/24 06:23:47;;;;;;;16.30;5.83;;;;;;;;;;4979223;28;20290;-71
2023/05/24 06:26:12;;;;;;;27.58;5.03;;;;;;;;;;4984578;28;20705;-71
2023/05/24 06:28:38;;;;;;;28.65;5.25;;;;;;;;;;4986176;28;20110;-71
2023/05/24 06:31:03;;;;;;;26.42;5.18;;;;;;;;;;4982030;28;20030;-71
2023/05/24 06:33:30;;;;;;;19.08;5.40;;;;;;;;;;4982373;28;20038;-71
2023/05/24 06:35:55;;;;;;;25.17;4.80;;;;;;;;;;4977551;28;20147;-71
2023/05/24 06:38:20;;;;;;;28.23;5.57;;;;;;;;;;4982557;28;20030;-71
2023/05/24 06:40:46;;;;;;;22.13;5.05;;;;;;;;;;4987481;28;20018;-71
2023/05/24 06:43:11;;;;;;;27.00;6.45;;;;;;;;;;4987122;28;20500;-71
2023/05/24 06:45:36;;;;;;;25.30;4.90;;;;;;;;;;4984890;28;20062;-71
2023/05/24 06:48:01;;;;;;;26.20;4.43;;;;;;;;;;4984352;28;20270;-71
2023/05/24 06:50:27;;;;;;;27.08;4.57;;;;;;;;;;4985074;28;20747;-71
2023/05/24 06:52:52;;;;;;;35.33;6.30;;;;;;;;;;4979559;28;20457;-71
2023/05/24 06:55:18;;;;;;;28.70;5.90;;;;;;;;;;4983705;28;20042;-71
2023/05/24 06:57:43;;;;;;;24.67;4.78;;;;;;;;;;4978735;28;20277;-70
2023/05/24 07:00:10;;;;;;;25.73;4.88;;;;;;;;;;4978210;28;20488;-70
2023/05/24 07:02:35;;;;;;;22.15;4.47;;;;;;;;;;4979244;28;20139;-70
2023/05/24 07:05:01;;;;;;;23.63;4.25;;;;;;;;;;4983834;28;20034;-70
2023/05/24 07:07:26;;;;;;;21.98;4.43;;;;;;;;;;4979350;28;20053;-71
2023/05/24 07:09:51;;;;;;;18.17;4.93;;;;;;;;;;4979837;28;20104;-71
2023/05/24 07:12:16;;;;;;;22.60;4.47;;;;;;;;;;4978248;28;20282;-71
2023/05/24 07:14:42;;;;;;;26.52;4.18;;;;;;;;;;4986626;28;20352;-71
2023/05/24 07:17:07;;;;;;;31.05;4.50;;;;;;;;;;4981539;28;20022;-71
2023/05/24 07:19:34;;;;;;;35.55;4.15;;;;;;;;;;4984481;28;20042;-70
2023/05/24 07:22:00;;;;;;;22.13;4.85;;;;;;;;;;4986411;28;20027;-70
2023/05/24 07:24:25;;;;;;;26.60;5.45;;;;;;;;;;4984545;28;20082;-71
2023/05/24 07:26:52;;;;;;;25.45;5.25;;;;;;;;;;4983711;28;20133;-71
2023/05/24 07:29:17;;;;;;;20.88;4.88;;;;;;;;;;4986838;28;20077;-71
2023/05/24 07:31:42;;;;;;;26.25;4.75;;;;;;;;;;4985709;28;20418;-71
2023/05/24 07:34:08;;;;;;;29.27;5.30;;;;;;;;;;4981862;28;20023;-71
2023/05/24 07:36:33;;;;;;;18.52;5.03;;;;;;;;;;4981805;28;20281;-71
2023/05/24 07:39:00;;;;;;;28.77;5.27;;;;;;;;;;4984425;28;20033;-71
2023/05/24 07:41:26;;;;;;;26.70;5.22;;;;;;;;;;4987162;28;20277;-71
2023/05/24 07:43:51;;;;;;;35.80;5.55;;;;;;;;;;4989971;28;20024;-71
2023/05/24 07:46:16;;;;;;;19.87;5.47;;;;;;;;;;4984720;28;20033;-69
2023/05/24 07:48:41;;;;;;;17.50;4.47;;;;;;;;;;4988846;28;20273;-70
2023/05/24 07:51:06;;;;;;;22.77;4.40;;;;;;;;;;4979307;28;20787;-70
2023/05/24 07:53:33;;;;;;;24.50;4.50;;;;;;;;;;4982953;28;20366;-70
2023/05/24 07:55:59;;;;;;;20.42;5.35;;;;;;;;;;4988888;28;20261;-70
2023/05/24 07:58:24;;;;;;;23.08;4.93;;;;;;;;;;4986605;28;20029;-70
2023/05/24 08:00:49;;;;;;;22.93;4.23;;;;;;;;;;4989660;28;20686;-70
2023/05/24 08:03:16;;;;;;;17.13;4.00;;;;;;;;;;4987216;28;20289;-70
2023/05/24 08:05:41;;;;;;;26.10;3.45;;;;;;;;;;4987193;28;20535;-70
2023/05/24 08:08:07;;;;;;;26.90;4.82;;;;;;;;;;4988323;28;20018;-70
2023/05/24 08:10:32;;;;;;;25.42;4.30;;;;;;;;;;4989438;28;21831;-70
2023/05/24 08:12:57;;;;;;;21.77;3.83;;;;;;;;;;4983813;28;20072;-70
2023/05/24 08:15:22;;;;;;;21.20;3.97;;;;;;;;;;4989953;28;20266;-70
2023/05/24 08:17:47;;;;;;;18.65;3.92;;;;;;;;;;4986580;28;20296;-69
2023/05/24 08:20:14;;;;;;;17.07;4.10;;;;;;;;;;4988883;28;20105;-69
2023/05/24 08:22:39;;;;;;;21.27;4.55;;;;;;;;;;4984616;28;20282;-69
2023/05/24 08:25:05;;;;;;;16.38;3.58;;;;;;;;;;4981224;28;20101;-71
2023/05/24 08:27:31;;;;;;;20.90;5.05;;;;;;;;;;4978724;28;20015;-70
2023/05/24 08:29:57;;;;;;;18.35;3.58;;;;;;;;;;4989752;28;20034;-70
2023/05/24 08:32:22;;;;;;;28.65;4.65;;;;;;;;;;4988656;28;20030;-71
2023/05/24 08:34:47;;;;;;;21.90;5.17;;;;;;;;;;4992428;28;20033;-71
2023/05/24 08:37:14;;;;;;;15.40;2.92;;;;;;;;;;4992487;28;20444;-71
2023/05/24 08:39:39;;;;;;;15.80;4.55;;;;;;;;;;4991235;28;20022;-71
2023/05/24 08:42:05;;;;;;;15.27;3.08;;;;;;;;;;4988546;28;20077;-71
2023/05/24 08:44:31;;;;;;;16.60;4.18;;;;;;;;;;4990042;28;20022;-71
2023/05/24 08:46:57;;;;;;;16.02;3.42;;;;;;;;;;4992279;28;20069;-71
2023/05/24 08:49:23;;;;;;;22.05;3.28;;;;;;;;;;4992432;28;20014;-71
2023/05/24 08:51:48;;;;;;;22.00;4.38;;;;;;;;;;4992275;28;20417;-71
2023/05/24 08:54:14;;;;;;;20.17;3.47;;;;;;;;;;4990836;28;20050;-71
2023/05/24 08:56:40;;;;;;;15.20;3.15;;;;;;;;;;4991490;28;20022;-71
2023/05/24 08:59:06;;;;;;;24.70;4.63;;;;;;;;;;4991886;28;20076;-71
2023/05/24 09:01:31;;;;;;;11.40;3.55;;;;;;;;;;4983991;28;20417;-71
2023/05/24 09:03:58;;;;;;;15.77;3.65;;;;;;;;;;4986399;28;20097;-71
2023/05/24 09:06:24;;;;;;;14.90;3.63;;;;;;;;;;4992159;28;20019;-70
2023/05/24 09:08:51;;;;;;;20.55;3.40;;;;;;;;;;4991829;28;20384;-70
2023/05/24 09:11:17;;;;;;;20.52;3.47;;;;;;;;;;4990807;28;20018;-70
2023/05/24 09:13:43;;;;;;;12.77;2.85;;;;;;;;;;4985446;28;20788;-70
2023/05/24 09:16:09;;;;;;;18.77;3.72;;;;;;;;;;4986790;28;20418;-70
2023/05/24 09:18:34;;;;;;;11.60;2.97;;;;;;;;;;4990284;28;20018;-70
2023/05/24 09:20:59;;;;;;;12.10;3.75;;;;;;;;;;4991594;28;20040;-70
2023/05/24 09:23:25;;;;;;;15.00;4.18;;;;;;;;;;4991631;28;20033;-70
2023/05/24 09:25:50;;;;;;;17.63;3.85;;;;;;;;;;4990628;28;20612;-70
2023/05/24 09:28:16;;;;;;;13.13;3.75;;;;;;;;;;4991461;28;20022;-70
2023/05/24 09:30:43;;;;;;;14.10;3.90;;;;;;;;;;4989572;28;20458;-72
2023/05/24 09:33:08;;;;;;;12.68;3.78;;;;;;;;;;4980866;28;20089;-72
2023/05/24 09:35:35;;;;;;;14.63;3.57;;;;;;;;;;4991756;28;20038;-72
2023/05/24 09:38:00;;;;;;;21.08;3.65;;;;;;;;;;4989974;28;20273;-72
2023/05/24 09:40:26;;;;;;;18.25;3.88;;;;;;;;;;4979639;28;20118;-72
2023/05/24 09:43:01;;;;;;;22.38;3.97;;;;;;;;;;4984408;28;20656;-72
2023/05/24 09:45:26;;;;;;;14.45;3.28;;;;;;;;;;4987198;28;20073;-72
2023/05/24 09:47:52;;;;;;;15.03;3.00;;;;;;;;;;4989605;28;20037;-72
2023/05/24 09:50:17;;;;;;;14.55;2.70;;;;;;;;;;4990497;28;20254;-71
2023/05/24 09:52:42;;;;;;;15.43;2.75;;;;;;;;;;4986489;28;20502;-71
2023/05/24 09:55:26;;;;;;;19.90;3.53;;;;;;;;;;4988005;28;20660;-71
2023/05/24 09:58:01;;;;;;;12.43;3.47;;;;;;;;;;4985339;28;20276;-71
2023/05/24 10:00:26;;;;;;;15.60;2.90;;;;;;;;;;4986580;28;20033;-71
2023/05/24 10:03:05;;;;;;;18.50;4.95;;;;;;;;;;4989088;28;20026;-71
2023/05/24 10:05:30;;;;;;;23.17;3.47;;;;;;;;;;4985044;28;20018;-71
2023/05/24 10:07:57;;;;;;;16.77;3.05;;;;;;;;;;4988928;28;20069;-71
2023/05/24 10:10:23;;;;;;;19.02;3.50;;;;;;;;;;4990478;28;20038;-71
2023/05/24 10:12:48;;;;;;;13.25;3.67;;;;;;;;;;4982877;28;20057;-71
2023/05/24 10:15:15;;;;;;;19.95;3.60;;;;;;;;;;4988793;28;20115;-71
2023/05/24 10:17:40;;;;;;;13.20;3.17;;;;;;;;;;4985819;28;20101;-71
2023/05/24 10:20:06;;;;;;;20.90;5.05;;;;;;;;;;4977150;28;20258;-70
2023/05/24 10:22:33;;;;;;;16.38;3.55;;;;;;;;;;4983316;28;20026;-70
2023/05/24 10:24:59;;;;;;;16.15;3.53;;;;;;;;;;4984094;28;20046;-70
2023/05/24 10:27:27;;;;;;;13.95;3.00;;;;;;;;;;4983619;28;20424;-70
2023/05/24 10:29:57;;;;;;;14.50;2.97;;;;;;;;;;4982938;28;20062;-70
2023/05/24 10:32:24;;;;;;;12.60;4.05;;;;;;;;;;4982636;28;20033;-70
2023/05/24 10:34:50;;;;;;;15.00;3.63;;;;;;;;;;4985402;28;20026;-70
2023/05/24 10:37:18;;;;;;;13.82;2.97;;;;;;;;;;4984825;28;20042;-70
2023/05/24 10:39:43;;;;;;;21.90;3.78;;;;;;;;;;4986834;28;20117;-70
2023/05/24 10:42:08;;;;;;;11.17;3.07;;;;;;;;;;4985262;28;20102;-70
2023/05/24 10:44:33;;;;;;;15.30;3.85;;;;;;;;;;4991121;28;20261;-70
2023/05/24 10:47:02;;;;;;;17.30;4.88;;;;;;;;;;4990150;28;20465;-71
2023/05/24 10:49:27;;;;;;;15.60;3.40;;;;;;;;;;4989144;28;20023;-70
2023/05/24 10:51:59;;;;;;;21.47;3.00;;;;;;;;;;4979775;28;20118;-70
2023/05/24 10:54:26;;;;;;;15.98;2.92;;;;;;;;;;4980315;28;20273;-70
2023/05/24 10:56:52;;;;;;;27.10;3.40;;;;;;;;;;4984006;28;20102;-70
2023/05/24 10:59:21;;;;;;;18.33;3.13;;;;;;;;;;4988105;28;20057;-71
2023/05/24 11:01:53;;;;;;;22.92;3.80;;;;;;;;;;4992646;28;20401;-71
2023/05/24 11:04:18;;;;;;;14.50;3.13;;;;;;;;;;4993167;28;20489;-70
2023/05/24 11:06:48;;;;;;;14.70;3.47;;;;;;;;;;4988431;28;20056;-70
2023/05/24 11:09:14;;;;;;;8.45;2.67;;;;;;;;;;4991109;28;20289;-70
2023/05/24 11:11:43;;;;;;;15.48;2.88;;;;;;;;;;4994745;28;20061;-70
2023/05/24 11:14:09;;;;;;;14.45;4.38;;;;;;;;;;4993723;28;20142;-70
2023/05/24 11:16:38;;;;;;;13.32;3.83;;;;;;;;;;4993819;28;20550;-70
2023/05/24 11:19:20;;;;;;;22.95;4.18;;;;;;;;;;4992963;28;20027;-70
2023/05/24 11:21:49;;;;;;;21.25;3.40;;;;;;;;;;4991716;28;20040;-70
2023/05/24 11:24:17;;;;;;;16.85;3.90;;;;;;;;;;4984721;28;20022;-71
2023/05/24 11:26:43;;;;;;;19.70;4.32;;;;;;;;;;4988384;28;20109;-71
2023/05/24 11:29:08;;;;;;;9.27;3.03;;;;;;;;;;4984315;28;20026;-72
2023/05/24 11:31:33;;;;;;;12.32;2.75;;;;;;;;;;4984967;28;20027;-72
2023/05/24 11:33:59;;;;;;;18.00;3.92;;;;;;;;;;4982760;28;20030;-72
2023/05/24 11:36:24;;;;;;;19.67;4.72;;;;;;;;;;4989653;28;20366;-72
2023/05/24 11:38:52;;;;;;;19.20;3.33;;;;;;;;;;4990327;28;20026;-72
2023/05/24 11:41:18;;;;;;;15.45;3.50;;;;;;;;;;4986943;28;20385;-72
2023/05/24 11:43:43;;;;;;;15.25;4.05;;;;;;;;;;4980980;28;20026;-72
2023/05/24 11:46:08;;;;;;;12.43;3.25;;;;;;;;;;4980288;28;20441;-72
2023/05/24 11:48:33;;;;;;;18.10;3.63;;;;;;;;;;4979868;28;20045;-72
2023/05/24 11:50:59;;;;;;;12.45;3.08;;;;;;;;;;4979917;28;20275;-72
2023/05/24 11:53:24;;;;;;;18.20;3.55;;;;;;;;;;4983634;28;20023;-72
2023/05/24 11:55:51;;;;;;;9.57;3.63;;;;;;;;;;4986942;28;20026;-72
2023/05/24 11:58:19;;;;;;;13.95;3.55;;;;;;;;;;4988679;28;20796;-72
2023/05/24 12:00:46;;;;;;;16.17;4.10;;;;;;;;;;4979316;28;20026;-72
2023/05/24 12:03:11;;;;;;;24.52;4.28;;;;;;;;;;4986672;28;20014;-72
2023/05/24 12:05:36;;;;;;;14.10;3.57;;;;;;;;;;4992665;28;20025;-72
2023/05/24 12:08:04;;;;;;;20.73;5.20;;;;;;;;;;4990093;28;20613;-72
2023/05/24 12:10:30;;;;;;;8.50;3.38;;;;;;;;;;4986471;28;20512;-72
2023/05/24 12:12:56;;;;;;;16.00;3.38;;;;;;;;;;4982205;28;20022;-72
2023/05/24 12:15:21;;;;;;;15.57;3.67;;;;;;;;;;4982649;28;20377;-72
2023/05/24 12:17:49;;;;;;;18.10;4.35;;;;;;;;;;4979660;28;20018;-71
2023/05/24 12:20:14;;;;;;;13.55;3.40;;;;;;;;;;4978153;28;20030;-71
2023/05/24 12:22:46;;;;;;;29.65;5.38;;;;;;;;;;4982082;28;20026;-71
2023/05/24 12:25:12;;;;;;;29.75;6.10;;;;;;;;;;4984124;28;20054;-72
2023/05/24 12:27:46;;;;;;;20.60;5.00;;;;;;;;;;4989462;28;20018;-72
2023/05/24 12:30:17;;;;;;;18.52;3.78;;;;;;;;;;4984173;28;20053;-72
2023/05/24 12:32:42;;;;;;;17.63;3.53;;;;;;;;;;4984268;28;20030;-72
2023/05/24 12:35:09;;;;;;;14.90;3.40;;;;;;;;;;4981594;28;20030;-72
2023/05/24 12:37:35;;;;;;;17.92;3.35;;;;;;;;;;4986843;28;20380;-72
2023/05/24 12:40:00;;;;;;;24.57;4.00;;;;;;;;;;4984537;28;20112;-72
2023/05/24 12:42:26;;;;;;;12.27;3.47;;;;;;;;;;4981266;28;20277;-72
2023/05/24 12:44:53;;;;;;;20.73;4.55;;;;;;;;;;4982174;28;20096;-72
2023/05/24 12:47:18;;;;;;;13.57;3.35;;;;;;;;;;4992848;28;20030;-72
2023/05/24 12:49:43;;;;;;;17.13;4.45;;;;;;;;;;4982561;28;20021;-72
2023/05/24 12:52:08;;;;;;;18.00;4.67;;;;;;;;;;4985910;28;20070;-72
2023/05/24 12:54:33;;;;;;;20.47;3.27;;;;;;;;;;4981188;28;20297;-72
2023/05/24 12:57:00;;;;;;;21.60;4.25;;;;;;;;;;4986065;28;20302;-71
2023/05/24 12:59:26;;;;;;;14.07;2.92;;;;;;;;;;4978721;28;20034;-71
2023/05/24 13:01:51;;;;;;;24.92;4.82;;;;;;;;;;4984247;28;20015;-71
2023/05/24 13:04:17;;;;;;;15.90;4.32;;;;;;;;;;4980940;28;20049;-71
2023/05/24 13:06:42;;;;;;;21.10;4.75;;;;;;;;;;4980084;28;20077;-71
2023/05/24 13:09:08;;;;;;;12.95;3.60;;;;;;;;;;4984206;28;20013;-72
2023/05/24 13:11:34;;;;;;;14.80;3.75;;;;;;;;;;4984181;28;20022;-72
2023/05/24 13:13:59;;;;;;;20.45;4.45;;;;;;;;;;4982846;28;20097;-72
2023/05/24 13:16:25;;;;;;;18.00;4.03;;;;;;;;;;4982967;28;20025;-72
2023/05/24 13:18:50;;;;;;;22.73;4.57;;;;;;;;;;4990420;28;20386;-72
2023/05/24 13:21:16;;;;;;;20.90;5.05;;;;;;;;;;4991361;28;20049;-71
2023/05/24 13:23:42;;;;;;;15.60;3.67;;;;;;;;;;4989393;28;20053;-72
2023/05/24 13:26:07;;;;;;;19.15;4.28;;;;;;;;;;4979574;28;20302;-72
2023/05/24 13:28:33;;;;;;;18.65;3.22;;;;;;;;;;4990170;28;20049;-72
2023/05/24 13:30:58;;;;;;;17.63;3.83;;;;;;;;;;4978685;28;20020;-72
2023/05/24 13:33:23;;;;;;;22.48;4.68;;;;;;;;;;4986081;28;20481;-72
2023/05/24 13:35:48;;;;;;;17.67;4.43;;;;;;;;;;4987420;28;20606;-72
2023/05/24 13:38:13;;;;;;;15.35;4.35;;;;;;;;;;4987647;28;20022;-71
2023/05/24 13:40:39;;;;;;;19.20;4.78;;;;;;;;;;4977561;28;20034;-71
2023/05/24 13:43:04;;;;;;;21.88;4.40;;;;;;;;;;4986579;28;20486;-71
2023/05/24 13:45:31;;;;;;;16.63;3.90;;;;;;;;;;4977057;28;20084;-71
2023/05/24 13:48:02;;;;;;;14.55;4.75;;;;;;;;;;4990528;28;20011;-71
2023/05/24 13:50:27;;;;;;;15.70;3.97;;;;;;;;;;4980231;28;20467;-72
2023/05/24 13:52:53;;;;;;;10.90;4.05;;;;;;;;;;4982441;28;20106;-72
2023/05/24 13:55:18;;;;;;;16.73;3.85;;;;;;;;;;4984290;28;20029;-72
2023/05/24 13:57:43;;;;;;;13.63;3.75;;;;;;;;;;4985170;28;20041;-72
2023/05/24 14:00:09;;;;;;;17.55;3.97;;;;;;;;;;4976251;28;20027;-72
2023/05/24 14:02:34;;;;;;;21.05;4.30;;;;;;;;;;4985119;28;20030;-72
2023/05/24 14:05:00;;;;;;;16.58;4.22;;;;;;;;;;4977319;28;20026;-72
2023/05/24 14:07:25;;;;;;;23.15;3.92;;;;;;;;;;4983803;28;20145;-72
2023/05/24 14:09:50;;;;;;;10.85;3.65;;;;;;;;;;4982444;28;20084;-72
2023/05/24 14:12:16;;;;;;;19.10;4.47;;;;;;;;;;4980018;28;20433;-72
2023/05/24 14:14:41;;;;;;;22.00;4.70;;;;;;;;;;4987031;28;20018;-72
2023/05/24 14:17:06;;;;;;;22.92;4.20;;;;;;;;;;4988768;28;20028;-72
2023/05/24 14:19:33;;;;;;;19.50;4.43;;;;;;;;;;4984211;28;20514;-72
2023/05/24 14:21:58;;;;;;;17.80;4.07;;;;;;;;;;4985885;28;20760;-72
2023/05/24 14:24:24;;;;;;;21.07;4.17;;;;;;;;;;4988508;28;20035;-72